Time;durP1;ratioP1;P1;durP2;ratioP2;P2;SDS_P1;SDS_P2;PMS_P1;PMS_P2;Temp;Humidity;BMP_temperature;BMP_pressure;BME280_temperature;BME280_humidity;BME280_pressure;Samples;Min_cycle;Max_cycle;Signal;HPM_P1;HPM_P2
2021/12/16 00:07:59;;;;;;;38.70;21.95;;;;;;;6.64;100.00;100601.59;8433402;28;20090;-82
2021/12/16 00:29:54;;;;;;;35.88;20.88;;;;;;;6.66;100.00;100594.13;8385596;28;20044;-81
2021/12/16 00:33:56;;;;;;;36.30;19.48;;;;;;;6.69;100.00;100599.78;8430727;28;20474;-82
2021/12/16 00:37:57;;;;;;;33.47;18.58;;;;;;;6.67;100.00;100599.22;8388951;28;20144;-81
2021/12/16 00:42:04;;;;;;;38.90;18.80;;;;;;;6.63;100.00;100599.97;8413094;28;20036;-83
2021/12/16 00:50:21;;;;;;;38.45;17.83;;;;;;;6.65;100.00;100597.84;8430271;28;20052;-82
2021/12/16 00:54:22;;;;;;;35.08;16.02;;;;;;;6.65;100.00;100592.50;8429128;28;20063;-82
2021/12/16 00:58:28;;;;;;;32.92;17.95;;;;;;;6.66;100.00;100594.13;8430308;28;20048;-82
2021/12/16 01:07:18;;;;;;;34.28;17.63;;;;;;;6.64;100.00;100601.59;8430220;28;20082;-78
2021/12/16 01:50:37;;;;;;;42.78;21.83;;;;;;;6.49;100.00;100577.22;8260980;28;20065;-82
2021/12/16 01:58:45;;;;;;;37.42;21.00;;;;;;;6.47;100.00;100580.13;8258172;28;20053;-82
2021/12/16 02:02:49;;;;;;;40.47;21.23;;;;;;;6.43;100.00;100575.50;8264078;28;20046;-82
2021/12/16 02:11:18;;;;;;;36.47;19.27;;;;;;;6.47;100.00;100579.31;8356168;28;20379;-82
2021/12/16 02:36:45;;;;;;;34.78;20.10;;;;;;;6.49;99.92;100574.53;8428466;28;20048;-79
2021/12/16 02:40:47;;;;;;;35.00;19.88;;;;;;;6.51;99.28;100577.75;8428002;28;20386;-82
2021/12/16 02:49:07;;;;;;;34.22;20.15;;;;;;;6.48;99.22;100575.59;8434236;28;20487;-82
2021/12/16 02:53:08;;;;;;;38.15;19.55;;;;;;;6.41;99.44;100577.63;8433622;28;20052;-83
2021/12/16 02:57:09;;;;;;;37.08;20.33;;;;;;;6.36;99.64;100581.84;8414492;28;20600;-83
2021/12/16 03:01:14;;;;;;;41.60;20.15;;;;;;;6.33;99.76;100595.78;8433761;28;20032;-83
2021/12/16 03:05:15;;;;;;;33.47;17.85;;;;;;;6.40;99.20;100589.44;8434059;28;20055;-81
2021/12/16 03:09:23;;;;;;;34.42;17.92;;;;;;;6.38;98.71;100591.53;8432889;28;20063;-82
2021/12/16 03:13:34;;;;;;;29.75;16.42;;;;;;;6.45;97.73;100592.19;8433383;28;20459;-81
2021/12/16 03:17:46;;;;;;;30.00;16.65;;;;;;;6.49;97.14;100598.69;8432998;28;20051;-82
2021/12/16 03:21:52;;;;;;;30.98;17.00;;;;;;;6.48;97.23;100597.06;8432955;28;20067;-80
2021/12/16 03:38:19;;;;;;;29.17;15.40;;;;;;;6.59;97.57;100598.84;8433614;28;20044;-84
2021/12/16 03:42:23;;;;;;;31.60;17.00;;;;;;;6.53;98.06;100610.53;8433659;28;20048;-82
2021/12/16 03:46:28;;;;;;;31.17;18.08;;;;;;;6.54;98.74;100614.88;8434439;28;20044;-82
2021/12/16 03:50:30;;;;;;;34.47;17.00;;;;;;;6.53;98.96;100610.53;8433843;28;20052;-81
2021/12/16 03:54:35;;;;;;;36.80;17.38;;;;;;;6.61;98.82;100602.09;8431468;28;20485;-81
2021/12/16 03:58:36;;;;;;;32.22;16.83;;;;;;;6.58;98.81;100613.31;8430916;28;20044;-83
2021/12/16 04:02:38;;;;;;;34.97;17.77;;;;;;;6.54;99.25;100614.88;8434130;28;20052;-82
2021/12/16 04:06:40;;;;;;;35.83;18.90;;;;;;;6.57;99.32;100611.69;8433701;28;20061;-81
2021/12/16 04:11:04;;;;;;;34.20;18.48;;;;;;;6.57;99.38;100606.31;8431673;28;20044;-83
2021/12/16 04:15:07;;;;;;;36.83;18.98;;;;;;;6.58;99.05;100605.25;8431931;28;20052;-83
2021/12/16 04:19:12;;;;;;;34.90;18.50;;;;;;;6.44;99.54;100606.66;8430486;28;20040;-79
2021/12/16 04:23:13;;;;;;;38.20;18.05;;;;;;;6.43;99.81;100610.41;8430956;28;20077;-81
2021/12/16 04:27:16;;;;;;;35.58;20.17;;;;;;;6.38;100.00;100613.00;8431260;28;20132;-78
2021/12/16 04:31:17;;;;;;;38.20;19.65;;;;;;;6.39;100.00;100603.91;8428527;28;20409;-82
2021/12/16 04:35:19;;;;;;;37.88;19.60;;;;;;;6.35;100.00;100609.75;8417228;28;20067;-83
2021/12/16 04:39:23;;;;;;;38.55;18.55;;;;;;;6.39;100.00;100614.63;8418550;28;20040;-83
2021/12/16 04:43:33;;;;;;;37.70;19.15;;;;;;;6.41;100.00;100609.81;8414139;28;20040;-83
2021/12/16 04:47:34;;;;;;;35.72;19.73;;;;;;;6.44;99.93;100614.72;8386706;28;20040;-81
2021/12/16 04:51:39;;;;;;;39.17;20.50;;;;;;;6.44;99.82;100607.47;8420183;28;20048;-82
2021/12/16 04:55:40;;;;;;;39.83;20.70;;;;;;;6.43;99.82;100605.84;8422507;28;20098;-83
2021/12/16 04:59:41;;;;;;;38.22;20.40;;;;;;;6.40;100.00;100610.91;8417767;28;20206;-83
2021/12/16 05:03:43;;;;;;;39.60;19.45;;;;;;;6.42;100.00;100603.41;8405839;28;20112;-86
2021/12/16 05:07:47;;;;;;;39.25;18.48;;;;;;;6.43;99.79;100610.41;8403639;28;20142;-83
2021/12/16 05:11:48;;;;;;;42.15;19.88;;;;;;;6.40;99.94;100605.53;8409876;28;20040;-83
2021/12/16 05:15:49;;;;;;;42.65;20.02;;;;;;;6.40;100.00;100613.59;8399382;28;20047;-82
2021/12/16 05:19:51;;;;;;;46.47;20.08;;;;;;;6.38;100.00;100618.38;8404639;28;20451;-82
2021/12/16 05:28:13;;;;;;;43.53;20.45;;;;;;;6.32;100.00;100604.88;8414213;28;20048;-82
2021/12/16 05:32:14;;;;;;;41.75;20.40;;;;;;;6.39;100.00;100598.53;8416890;28;20044;-80
2021/12/16 05:36:15;;;;;;;46.45;22.38;;;;;;;6.30;100.00;100601.59;8394641;28;20040;-81
2021/12/16 05:40:23;;;;;;;48.47;22.90;;;;;;;6.25;100.00;100598.84;8394625;28;20142;-81
2021/12/16 05:44:24;;;;;;;44.17;21.67;;;;;;;6.26;100.00;100611.22;8404923;28;20048;-83
2021/12/16 05:48:29;;;;;;;50.53;23.13;;;;;;;6.24;100.00;100605.25;8394888;28;20501;-82
2021/12/16 05:52:30;;;;;;;51.20;21.17;;;;;;;6.20;100.00;100601.44;8424677;28;20055;-80
2021/12/16 05:56:31;;;;;;;44.28;21.85;;;;;;;6.21;100.00;100603.06;8427656;28;20084;-81
2021/12/16 06:00:36;;;;;;;49.67;23.67;;;;;;;6.30;100.00;100606.97;8421914;28;20366;-79
2021/12/16 06:04:37;;;;;;;51.55;22.13;;;;;;;6.27;100.00;100602.09;8385364;28;20105;-81
2021/12/16 06:08:38;;;;;;;47.78;20.58;;;;;;;6.22;100.00;100610.06;8425378;28;20048;-80
2021/12/16 06:12:39;;;;;;;46.92;22.08;;;;;;;6.26;100.00;100605.84;8426133;28;20083;-80
2021/12/16 06:29:46;;;;;;;46.97;21.15;;;;;;;6.23;100.00;100600.97;8431227;28;19926;-81
2021/12/16 06:33:48;;;;;;;44.08;20.60;;;;;;;6.30;100.00;100595.44;8432070;28;20139;-84
2021/12/16 06:37:49;;;;;;;46.92;23.67;;;;;;;6.27;100.00;100596.75;8430479;28;20131;-83
2021/12/16 06:41:50;;;;;;;51.53;22.45;;;;;;;6.28;100.00;100602.94;8413524;28;20097;-82
2021/12/16 06:45:53;;;;;;;41.83;21.70;;;;;;;6.35;100.00;100609.75;8432170;28;20094;-83
2021/12/16 06:49:55;;;;;;;47.28;22.42;;;;;;;6.27;100.00;100612.84;8425037;28;20496;-83
2021/12/16 06:58:37;;;;;;;48.88;23.10;;;;;;;6.24;100.00;100612.50;8328580;28;20510;-82
2021/12/16 07:03:03;;;;;;;52.33;22.85;;;;;;;6.27;100.00;100618.22;8327650;28;20127;-81
2021/12/16 07:07:04;;;;;;;45.95;23.42;;;;;;;6.32;100.00;100620.97;8325348;28;20073;-81
2021/12/16 07:11:04;;;;;;;50.03;21.83;;;;;;;6.33;100.00;100617.25;8330366;28;20092;-80
2021/12/16 07:15:10;;;;;;;42.55;22.90;;;;;;;6.26;100.00;100607.72;8330015;28;20558;-81
2021/12/16 07:19:11;;;;;;;47.25;22.15;;;;;;;6.25;100.00;100620.31;8263906;28;20042;-79
2021/12/16 07:23:12;;;;;;;47.90;22.52;;;;;;;6.28;100.00;100611.78;8265710;28;20586;-81
2021/12/16 07:27:13;;;;;;;46.50;22.38;;;;;;;6.27;100.00;100612.84;8249547;28;20050;-81
2021/12/16 07:31:14;;;;;;;41.75;21.08;;;;;;;6.39;100.00;100609.25;8262230;28;20069;-86
2021/12/16 07:35:20;;;;;;;44.15;20.45;;;;;;;6.31;100.00;100613.97;8354879;28;20057;-82
2021/12/16 07:39:29;;;;;;;44.38;21.55;;;;;;;6.36;100.00;100615.91;8378348;28;20048;-82
2021/12/16 07:43:52;;;;;;;40.28;18.23;;;;;;;6.35;100.00;100620.47;8362383;28;20065;-86
2021/12/16 07:47:52;;;;;;;44.90;21.00;;;;;;;6.41;100.00;100629.41;8395024;28;20072;-84
2021/12/16 07:51:53;;;;;;;47.47;20.58;;;;;;;6.48;100.00;100623.91;8375972;28;20080;-80
2021/12/16 07:55:55;;;;;;;40.35;20.02;;;;;;;6.50;100.00;100622.59;8395160;28;20040;-79
2021/12/16 07:59:56;;;;;;;39.17;20.25;;;;;;;6.49;100.00;100625.53;8431628;28;20044;-83
2021/12/16 08:03:58;;;;;;;45.05;21.48;;;;;;;6.44;100.00;100623.56;8430957;28;20040;-82
2021/12/16 08:08:00;;;;;;;42.95;20.85;;;;;;;6.45;100.00;100624.41;8417835;28;20102;-81
2021/12/16 08:12:04;;;;;;;43.47;20.42;;;;;;;6.44;100.00;100628.13;8399181;28;20133;-81
2021/12/16 08:16:06;;;;;;;42.78;20.92;;;;;;;6.47;100.00;100635.69;8399011;28;20486;-81
2021/12/16 08:20:10;;;;;;;42.33;19.77;;;;;;;6.46;100.00;100631.38;8397537;28;20548;-82
2021/12/16 08:24:16;;;;;;;39.72;19.17;;;;;;;6.44;100.00;100644.22;8397665;28;20080;-83
2021/12/16 08:28:18;;;;;;;40.72;19.67;;;;;;;6.41;100.00;100656.25;8408932;28;20505;-82
2021/12/16 08:32:19;;;;;;;43.50;20.08;;;;;;;6.43;100.00;100653.34;8398853;28;20114;-83
2021/12/16 08:36:21;;;;;;;38.40;18.83;;;;;;;6.47;100.00;100665.19;8397423;28;20048;-83
2021/12/16 08:40:24;;;;;;;38.42;19.20;;;;;;;6.45;100.00;100678.84;8398838;28;20072;-85
2021/12/16 08:44:27;;;;;;;40.80;18.55;;;;;;;6.48;100.00;100677.56;8388122;28;20047;-88
2021/12/16 08:48:28;;;;;;;37.08;18.60;;;;;;;6.49;100.00;100684.56;8430646;28;20047;-84
2021/12/16 08:52:29;;;;;;;36.25;17.60;;;;;;;6.43;100.00;100686.34;8394419;28;20045;-86
2021/12/16 08:56:30;;;;;;;34.50;16.88;;;;;;;6.42;100.00;100678.53;8394109;28;20421;-85
2021/12/16 09:00:36;;;;;;;28.38;15.20;;;;;;;6.48;100.00;100682.94;8393891;28;20090;-86
2021/12/16 09:04:40;;;;;;;32.65;15.55;;;;;;;6.45;100.00;100686.13;8393754;28;20049;-82
2021/12/16 09:08:42;;;;;;;33.88;16.08;;;;;;;6.50;100.00;100680.84;8393833;28;20056;-83
2021/12/16 09:17:16;;;;;;;27.08;14.43;;;;;;;6.51;100.00;100685.13;8218573;28;20578;-82
2021/12/16 09:21:26;;;;;;;37.78;22.33;;;;;;;6.50;100.00;100691.56;8239682;28;20050;-85
2021/12/16 09:25:28;;;;;;;28.13;15.30;;;;;;;6.57;100.00;100697.56;8277990;28;20484;-84
2021/12/16 09:29:31;;;;;;;27.45;15.23;;;;;;;6.55;100.00;100688.97;8294144;28;20057;-80
2021/12/16 09:33:33;;;;;;;28.40;14.68;;;;;;;6.56;100.00;100691.38;8262020;28;20065;-81
2021/12/16 09:37:36;;;;;;;28.02;14.60;;;;;;;6.58;100.00;100693.84;8277762;28;20052;-85
2021/12/16 09:41:41;;;;;;;27.70;14.20;;;;;;;6.66;100.00;100696.13;8294020;28;20066;-82
2021/12/16 09:45:43;;;;;;;29.08;14.85;;;;;;;6.62;100.00;100700.34;8196721;28;20054;-83
2021/12/16 09:49:44;;;;;;;32.03;16.35;;;;;;;6.62;100.00;100705.69;8213061;28;20062;-84
2021/12/16 09:53:45;;;;;;;34.88;21.02;;;;;;;6.60;100.00;100697.09;8336177;28;20056;-87
2021/12/16 09:57:47;;;;;;;37.97;19.30;;;;;;;6.60;100.00;100691.72;8325237;28;20139;-86
2021/12/16 10:01:53;;;;;;;28.85;14.95;;;;;;;6.66;100.00;100688.06;8309045;28;20045;-86
2021/12/16 10:05:54;;;;;;;28.63;13.55;;;;;;;6.65;100.00;100689.13;8275491;28;20108;-83
2021/12/16 10:09:56;;;;;;;31.08;16.50;;;;;;;6.64;100.00;100698.22;8325344;28;20057;-85
2021/12/16 10:18:08;;;;;;;27.83;14.75;;;;;;;6.62;100.00;100689.59;8344556;28;20064;-82
2021/12/16 10:22:26;;;;;;;29.90;16.50;;;;;;;6.66;100.00;100690.75;8365448;28;20044;-84
2021/12/16 10:26:28;;;;;;;28.77;14.10;;;;;;;6.69;100.00;100684.88;8335358;28;20101;-83
2021/12/16 10:30:44;;;;;;;32.03;15.23;;;;;;;6.68;100.00;100683.25;8391520;28;20057;-86
2021/12/16 10:34:59;;;;;;;24.02;13.73;;;;;;;6.67;100.00;100678.94;8391622;28;20096;-84
2021/12/16 10:39:10;;;;;;;33.55;14.35;;;;;;;6.65;100.00;100681.88;8391216;28;20569;-86
2021/12/16 10:43:15;;;;;;;35.78;17.88;;;;;;;6.66;100.00;100674.66;8391698;28;20053;-84
2021/12/16 10:47:17;;;;;;;35.40;16.70;;;;;;;6.67;100.00;100670.88;8375761;28;20155;-82
2021/12/16 10:51:23;;;;;;;30.60;16.63;;;;;;;6.72;100.00;100668.28;8392681;28;20068;-86
2021/12/16 10:55:26;;;;;;;30.20;15.40;;;;;;;6.75;100.00;100673.19;8374595;28;20049;-82
2021/12/16 10:59:45;;;;;;;29.88;16.13;;;;;;;6.71;100.00;100682.78;8359700;28;20075;-84
2021/12/16 11:03:52;;;;;;;35.63;16.88;;;;;;;6.69;100.00;100690.25;8399338;28;20493;-81
2021/12/16 11:07:59;;;;;;;27.35;15.63;;;;;;;6.71;100.00;100694.34;8400424;28;20057;-84
2021/12/16 11:12:19;;;;;;;23.67;13.18;;;;;;;6.68;100.00;100705.56;8365254;28;20126;-83
2021/12/16 11:16:34;;;;;;;26.20;13.90;;;;;;;6.68;100.00;100712.78;8381232;28;20050;-85
2021/12/16 11:20:37;;;;;;;27.75;13.68;;;;;;;6.68;100.00;100712.78;8399798;28;20461;-83
2021/12/16 11:24:39;;;;;;;23.95;12.55;;;;;;;6.69;100.00;100695.63;8399827;28;20117;-85
2021/12/16 11:28:44;;;;;;;29.08;14.05;;;;;;;6.75;100.00;100700.03;8398574;28;20072;-84
2021/12/16 11:32:50;;;;;;;25.60;13.20;;;;;;;6.77;100.00;100681.78;8399772;28;20048;-85
2021/12/16 11:36:54;;;;;;;32.25;14.60;;;;;;;6.80;100.00;100670.56;8400345;28;20067;-83
2021/12/16 11:40:55;;;;;;;29.45;14.68;;;;;;;6.79;100.00;100671.63;8397584;28;20094;-86
2021/12/16 11:44:58;;;;;;;30.52;14.32;;;;;;;6.77;100.00;100676.41;8399316;28;20040;-82
2021/12/16 11:49:10;;;;;;;27.10;13.75;;;;;;;6.76;100.00;100664.88;8399393;28;20047;-85
2021/12/16 11:53:13;;;;;;;33.25;14.93;;;;;;;6.77;100.00;100665.66;8399498;28;20079;-89
2021/12/16 11:57:32;;;;;;;31.15;13.95;;;;;;;6.82;100.00;100673.81;8413388;28;20052;-85
2021/12/16 12:01:37;;;;;;;27.88;14.13;;;;;;;6.80;100.00;100675.94;8398014;28;20068;-81
2021/12/16 12:05:48;;;;;;;25.05;13.30;;;;;;;6.84;100.00;100660.13;8428222;28;20055;-81
2021/12/16 12:09:54;;;;;;;30.35;13.98;;;;;;;6.77;100.00;100665.66;8404204;28;20051;-86
2021/12/16 12:14:07;;;;;;;25.15;13.07;;;;;;;6.85;100.00;100667.13;8379031;28;20433;-85
2021/12/16 12:18:09;;;;;;;27.73;13.32;;;;;;;6.83;100.00;100666.56;8364088;28;20383;-84
2021/12/16 12:22:11;;;;;;;24.27;13.02;;;;;;;6.80;100.00;100665.19;8408280;28;20040;-82
2021/12/16 12:26:16;;;;;;;25.00;13.02;;;;;;;6.79;100.00;100663.56;8427829;28;20382;-82
2021/12/16 12:30:18;;;;;;;21.67;13.35;;;;;;;6.79;100.00;100668.94;8431512;28;20048;-84
2021/12/16 12:34:21;;;;;;;24.30;11.88;;;;;;;6.76;100.00;100674.81;8431184;28;20451;-84
2021/12/16 12:38:22;;;;;;;24.70;11.52;;;;;;;6.76;100.00;100674.81;8430810;28;20063;-82
2021/12/16 12:42:23;;;;;;;22.55;12.20;;;;;;;6.69;100.00;100685.72;8429592;28;20056;-84
2021/12/16 12:46:24;;;;;;;391.55;146.52;;;;;;;6.70;100.00;100681.16;8412769;28;20485;-85
2021/12/16 12:50:32;;;;;;;28.17;14.73;;;;;;;6.66;100.00;100680.03;8430779;28;20126;-81
2021/12/16 12:54:33;;;;;;;31.45;16.65;;;;;;;6.70;100.00;100686.53;8429713;28;20483;-84
2021/12/16 12:58:47;;;;;;;41.00;22.63;;;;;;;6.72;100.00;100687.06;8430288;28;20516;-85
2021/12/16 13:02:56;;;;;;;26.40;15.32;;;;;;;6.73;100.00;100686.03;8430252;28;20048;-86
2021/12/16 13:07:07;;;;;;;68.47;30.77;;;;;;;6.74;100.00;100687.66;8428699;28;20059;-83
2021/12/16 13:11:25;;;;;;;38.33;20.77;;;;;;;6.73;100.00;100686.03;8428388;28;20044;-83
2021/12/16 13:15:47;;;;;;;28.20;15.27;;;;;;;6.72;100.00;100684.38;8429332;28;20091;-83
2021/12/16 13:24:34;;;;;;;24.33;13.55;;;;;;;6.73;100.00;100691.38;8429234;28;20040;-86
2021/12/16 13:32:48;;;;;;;22.45;13.85;;;;;;;6.69;100.00;100706.38;8396389;28;20044;-86
2021/12/16 13:36:50;;;;;;;30.40;12.38;;;;;;;6.71;100.00;100715.00;8380075;28;20040;-85
2021/12/16 13:40:51;;;;;;;27.65;12.35;;;;;;;6.69;100.00;100722.47;8395821;28;20048;-90
2021/12/16 13:45:07;;;;;;;27.25;13.70;;;;;;;6.70;100.00;100708.00;8394721;28;20052;-85
2021/12/16 14:15:59;;;;;;;22.38;12.45;;;;;;;6.69;100.00;100711.75;8309973;28;20041;-82
2021/12/16 14:25:03;;;;;;;20.13;11.65;;;;;;;6.67;100.00;100724.59;8325242;28;20045;-84
2021/12/16 14:37:36;;;;;;;19.13;10.77;;;;;;;6.62;100.00;100748.66;8323469;28;20069;-81
2021/12/16 14:45:45;;;;;;;18.17;9.95;;;;;;;6.62;100.00;100780.88;8347955;28;20070;-82
2021/12/16 14:49:49;;;;;;;19.23;9.85;;;;;;;6.59;100.00;100781.38;8407076;28;20147;-86
2021/12/16 14:53:53;;;;;;;17.70;10.30;;;;;;;6.57;100.00;100772.72;8430247;28;20040;-81
2021/12/16 14:57:57;;;;;;;16.38;9.82;;;;;;;6.53;100.00;100775.09;8407242;28;20063;-83
2021/12/16 15:02:00;;;;;;;16.67;9.52;;;;;;;6.54;100.00;100778.59;8427135;28;20068;-85
2021/12/16 15:06:32;;;;;;;17.98;10.15;;;;;;;6.48;100.00;100771.50;8429718;28;20040;-84
2021/12/16 15:10:34;;;;;;;18.25;9.73;;;;;;;6.46;100.00;100787.03;8328063;28;20109;-82
2021/12/16 15:40:58;;;;;;;17.15;9.63;;;;;;;5.73;100.00;100787.69;8232583;28;20075;-84
2021/12/16 15:45:05;;;;;;;20.35;11.00;;;;;;;5.80;100.00;100788.38;8222900;28;20051;-85
2021/12/16 15:49:07;;;;;;;22.42;10.63;;;;;;;5.82;100.00;100791.63;8296665;28;20137;-85
2021/12/16 15:53:12;;;;;;;17.92;10.15;;;;;;;5.74;100.00;100794.69;8281737;28;20137;-87
2021/12/16 15:57:15;;;;;;;16.85;10.10;;;;;;;5.73;100.00;100814.50;8336153;28;20521;-86
2021/12/16 16:01:19;;;;;;;20.40;12.45;;;;;;;5.76;100.00;100819.41;8345277;28;20064;-86
2021/12/16 16:05:22;;;;;;;19.35;11.05;;;;;;;5.87;100.00;100810.53;8345784;28;20451;-88
2021/12/16 16:09:25;;;;;;;17.38;8.73;;;;;;;5.84;100.00;100816.34;8346387;28;20048;-85
2021/12/16 16:13:36;;;;;;;19.15;10.18;;;;;;;5.92;100.00;100818.72;8296532;28;20053;-87
2021/12/16 16:17:41;;;;;;;17.83;9.60;;;;;;;5.91;100.00;100823.25;8329585;28;20057;-85
2021/12/16 16:21:46;;;;;;;18.70;9.20;;;;;;;5.88;100.00;100830.94;8329164;28;20053;-80
2021/12/16 16:25:47;;;;;;;17.42;8.93;;;;;;;5.99;100.00;100830.09;8391014;28;20403;-84
2021/12/16 16:29:51;;;;;;;18.65;9.38;;;;;;;5.91;100.00;100822.44;8408648;28;20052;-81
2021/12/16 16:33:52;;;;;;;17.45;9.43;;;;;;;5.90;100.00;100826.16;8416088;28;20047;-84
2021/12/16 16:37:53;;;;;;;16.73;9.55;;;;;;;5.92;100.00;100824.09;8418845;28;20093;-82
2021/12/16 16:41:57;;;;;;;22.08;10.18;;;;;;;5.93;100.00;100825.69;8406475;28;20046;-85
2021/12/16 16:46:04;;;;;;;18.25;9.55;;;;;;;5.95;100.00;100823.59;8427973;28;20044;-84
2021/12/16 16:50:08;;;;;;;20.25;10.95;;;;;;;5.89;100.00;100824.53;8428324;28;20043;-83
2021/12/16 16:54:34;;;;;;;13.80;8.93;;;;;;;5.83;100.00;100825.44;8429138;28;20059;-85
2021/12/16 16:58:35;;;;;;;14.50;8.63;;;;;;;5.78;100.00;100817.28;8430088;28;20375;-84
2021/12/16 17:02:46;;;;;;;23.40;12.07;;;;;;;5.73;100.00;100825.22;8430147;28;20048;-83
2021/12/16 17:06:51;;;;;;;16.27;9.07;;;;;;;5.68;100.00;100825.94;8430465;28;20040;-82
2021/12/16 17:11:01;;;;;;;41.67;21.63;;;;;;;5.71;100.00;100827.34;8429806;28;20058;-85
2021/12/16 17:15:27;;;;;;;21.83;11.88;;;;;;;5.56;100.00;100851.09;8414290;28;20123;-85
2021/12/16 17:19:39;;;;;;;19.60;10.75;;;;;;;5.45;100.00;100856.22;8429028;28;20063;-84
2021/12/16 17:23:41;;;;;;;40.05;21.38;;;;;;;5.50;100.00;100848.31;8431778;28;20055;-84
2021/12/16 17:27:45;;;;;;;16.98;7.85;;;;;;;5.49;100.00;100835.97;8424804;28;20033;-83
2021/12/16 17:32:07;;;;;;;20.38;8.45;;;;;;;5.55;100.00;100833.41;8428976;28;20093;-85
2021/12/16 17:36:08;;;;;;;17.48;10.25;;;;;;;5.61;100.00;100821.72;8428461;28;20072;-82
2021/12/16 17:40:22;;;;;;;13.25;7.68;;;;;;;5.52;100.00;100824.78;8428797;28;20044;-84
2021/12/16 17:44:26;;;;;;;18.00;7.53;;;;;;;5.51;100.00;100849.94;8429756;28;20048;-82
2021/12/16 17:48:31;;;;;;;18.35;9.25;;;;;;;5.51;100.00;100844.59;8389216;28;20052;-84
2021/12/16 17:52:37;;;;;;;16.60;7.13;;;;;;;5.52;100.00;100846.22;8374388;28;20121;-85
2021/12/16 17:56:38;;;;;;;15.07;8.02;;;;;;;5.60;100.00;100863.00;8358674;28;20453;-83
2021/12/16 18:00:47;;;;;;;18.17;7.20;;;;;;;5.60;100.00;100881.78;8342334;28;20158;-82
2021/12/16 18:04:51;;;;;;;14.65;7.78;;;;;;;5.60;100.00;100871.88;8358705;28;20068;-83
2021/12/16 18:09:04;;;;;;;15.70;6.85;;;;;;;5.69;100.00;100872.31;8363176;28;20059;-84
2021/12/16 18:13:05;;;;;;;17.70;6.75;;;;;;;5.62;100.00;100866.25;8391747;28;20044;-85
2021/12/16 18:17:11;;;;;;;16.00;6.88;;;;;;;5.57;100.00;100863.44;8387491;28;20059;-83
2021/12/16 18:21:11;;;;;;;15.07;7.78;;;;;;;5.75;100.00;100874.06;8407307;28;20055;-83
2021/12/16 18:25:15;;;;;;;19.27;7.35;;;;;;;5.62;100.00;100876.97;8418155;28;20056;-81
2021/12/16 18:29:17;;;;;;;18.50;8.88;;;;;;;5.57;100.00;100890.25;8423950;28;20067;-83
2021/12/16 18:33:26;;;;;;;19.00;7.43;;;;;;;5.56;100.00;100888.63;8427873;28;20485;-82
2021/12/16 18:37:29;;;;;;;20.20;8.40;;;;;;;5.50;100.00;100901.91;8376788;28;20044;-82
2021/12/16 18:41:54;;;;;;;20.42;8.32;;;;;;;5.49;100.00;100904.81;8426289;28;20048;-82
2021/12/16 18:45:58;;;;;;;16.63;8.15;;;;;;;5.49;100.00;100910.19;8426651;28;20401;-83
2021/12/16 18:50:07;;;;;;;21.30;7.40;;;;;;;5.52;100.00;100899.81;8427196;28;20371;-83
2021/12/16 18:58:28;;;;;;;17.55;7.43;;;;;;;5.45;100.00;100915.19;8417909;28;20164;-83
2021/12/16 19:02:30;;;;;;;17.95;8.07;;;;;;;5.45;100.00;100931.25;8426378;28;20052;-84
2021/12/16 19:06:35;;;;;;;23.38;8.23;;;;;;;5.45;100.00;100920.53;8424332;28;20040;-85
2021/12/16 19:10:38;;;;;;;21.23;9.77;;;;;;;5.48;100.00;100919.28;8416455;28;20047;-84
2021/12/16 19:14:52;;;;;;;23.30;9.05;;;;;;;5.46;100.00;100922.16;8409073;28;20069;-82
2021/12/16 19:18:57;;;;;;;17.42;8.57;;;;;;;5.42;100.00;100915.66;8410659;28;20036;-81
2021/12/16 19:22:58;;;;;;;20.00;8.90;;;;;;;5.41;100.00;100930.09;8415759;28;20403;-80
2021/12/16 19:26:59;;;;;;;18.33;9.60;;;;;;;5.48;100.00;100920.09;8430101;28;20059;-82
2021/12/16 19:31:05;;;;;;;18.98;8.68;;;;;;;5.50;100.00;100915.28;8415358;28;20083;-82
2021/12/16 19:35:08;;;;;;;20.60;8.98;;;;;;;5.44;100.00;100924.28;8382498;28;20143;-81
2021/12/16 19:39:11;;;;;;;19.65;9.38;;;;;;;5.47;100.00;100897.00;8410482;28;20393;-81
2021/12/16 19:43:12;;;;;;;18.55;8.55;;;;;;;5.38;100.00;100914.47;8412559;28;20048;-82
2021/12/16 19:47:14;;;;;;;21.05;8.90;;;;;;;5.36;100.00;100911.22;8409427;28;20044;-83
2021/12/16 19:51:16;;;;;;;23.05;10.05;;;;;;;5.35;100.00;100925.66;8407272;28;20075;-83
2021/12/16 19:55:18;;;;;;;21.45;8.90;;;;;;;5.40;100.00;100923.09;8416998;28;20045;-81
2021/12/16 19:59:20;;;;;;;20.73;8.48;;;;;;;5.38;100.00;100914.47;8408543;28;20056;-84
2021/12/16 20:03:25;;;;;;;25.67;8.38;;;;;;;5.31;100.00;100919.13;8415903;28;20056;-82
2021/12/16 20:07:47;;;;;;;24.90;9.43;;;;;;;5.28;100.00;100916.91;8429241;28;20062;-82
2021/12/16 20:11:57;;;;;;;22.67;8.30;;;;;;;5.34;100.00;100918.66;8378261;28;20142;-82
2021/12/16 20:16:03;;;;;;;15.05;7.80;;;;;;;5.28;100.00;100926.81;8378209;28;20052;-83
2021/12/16 20:20:13;;;;;;;21.95;9.15;;;;;;;5.29;99.74;100931.91;8326769;28;20102;-84
2021/12/16 20:24:17;;;;;;;20.83;8.45;;;;;;;5.26;99.94;100920.84;8391028;28;20486;-83
2021/12/16 20:28:26;;;;;;;23.38;7.20;;;;;;;5.26;99.91;100916.31;8356673;28;20045;-83
2021/12/16 20:32:28;;;;;;;;;;;;;;;5.24;99.85;100918.41;8330290;28;20057;-85
2021/12/16 20:36:35;;;;;;;25.40;7.85;;;;;;;5.25;99.68;100920.03;8347533;28;19957;-83
2021/12/16 20:40:39;;;;;;;19.65;7.45;;;;;;;5.24;98.70;100929.13;8349748;28;20152;-86
2021/12/16 20:44:43;;;;;;;22.75;8.05;;;;;;;5.19;99.20;100926.31;8392818;28;20051;-82
2021/12/16 20:48:51;;;;;;;17.27;7.47;;;;;;;5.20;99.25;100927.94;8361952;28;20253;-84
2021/12/16 20:52:52;;;;;;;17.10;7.10;;;;;;;5.21;98.84;100918.88;8395823;28;20040;-82
2021/12/16 20:56:53;;;;;;;23.55;7.22;;;;;;;5.16;98.69;100926.78;8326607;28;20127;-83
2021/12/16 21:00:58;;;;;;;21.13;7.05;;;;;;;5.14;98.54;100931.53;8392099;28;20529;-86
2021/12/16 21:05:01;;;;;;;30.88;7.78;;;;;;;5.17;98.29;100939.13;8396122;28;20055;-82
2021/12/16 21:09:05;;;;;;;19.90;8.00;;;;;;;5.11;98.58;100934.69;8428716;28;20048;-83
2021/12/16 21:13:06;;;;;;;22.33;7.57;;;;;;;5.11;98.12;100929.31;8427153;28;20119;-83
2021/12/16 21:17:10;;;;;;;28.80;8.32;;;;;;;5.12;98.00;100930.97;8414096;28;20056;-85
2021/12/16 21:21:12;;;;;;;24.85;7.30;;;;;;;5.05;98.30;100935.59;8425906;28;20059;-85
2021/12/16 21:25:15;;;;;;;25.17;7.43;;;;;;;5.06;98.15;100934.56;8425048;28;20071;-83
2021/12/16 21:29:17;;;;;;;22.48;7.53;;;;;;;5.06;98.16;100931.88;8361349;28;20066;-84
2021/12/16 21:33:24;;;;;;;22.33;7.07;;;;;;;5.03;98.12;100918.91;8429641;28;20481;-85
2021/12/16 21:37:26;;;;;;;27.85;7.43;;;;;;;5.03;98.16;100905.53;8395811;28;20141;-84
2021/12/16 21:41:28;;;;;;;26.73;6.70;;;;;;;4.99;98.07;100915.06;8395222;28;20048;-82
2021/12/16 21:45:30;;;;;;;25.45;6.82;;;;;;;4.96;98.60;100913.69;8426933;28;20074;-82
2021/12/16 21:49:31;;;;;;;28.38;7.68;;;;;;;4.96;98.32;100916.34;8429456;28;21055;-83
2021/12/16 21:53:33;;;;;;;21.23;6.07;;;;;;;4.98;97.21;100908.06;8428322;28;20048;-84
2021/12/16 21:57:34;;;;;;;22.00;5.28;;;;;;;4.95;97.72;100908.53;8428231;28;20611;-82
2021/12/16 22:01:35;;;;;;;18.73;5.93;;;;;;;4.94;97.61;100918.44;8429658;28;20130;-85
2021/12/16 22:05:36;;;;;;;21.00;6.03;;;;;;;4.92;98.03;100914.34;8410550;28;20048;-83
2021/12/16 22:09:37;;;;;;;25.42;5.80;;;;;;;4.92;98.28;100927.72;8395871;28;20059;-82
2021/12/16 22:13:39;;;;;;;26.88;6.15;;;;;;;4.94;97.67;100922.97;8395826;28;20387;-84
2021/12/16 22:17:40;;;;;;;22.20;5.75;;;;;;;4.89;97.67;100925.50;8419814;28;20044;-83
2021/12/16 22:21:47;;;;;;;23.83;5.82;;;;;;;4.91;97.57;100923.44;8427168;28;20052;-82
2021/12/16 22:25:48;;;;;;;32.78;6.53;;;;;;;4.92;97.31;100914.34;8428649;28;20089;-83
2021/12/16 22:29:49;;;;;;;24.42;6.38;;;;;;;4.92;96.81;100908.97;8428859;28;20051;-82
2021/12/16 22:33:53;;;;;;;29.00;7.30;;;;;;;4.87;96.93;100900.81;8417288;28;20076;-83